首页
METAR-TAF:

METAR-TAF

机场 :

庫拉索國際機場

库拉索, 荷属安的列斯

纬度: 12-12N, 经度: 068-58W, 海拔: 9米

当前天气观测

该预报发布于13分钟前的21:00 UTC
风速14节,风向
温度 29°C
湿度 70%
气压 1012 hPa
能见度10公里或以上

METAR: TNCC 182100Z 10014KT 9999 NSC 29/23 Q1012 NOSIG

时间: 17:13 (21:13 UTC)

预报

该预报发布于5小时和13分钟前的16:00 UTC
预报有效从18日的 18点(UTC)到 19日的 18点(UTC)
风速14节,风向
能见度10公里或以上
散云层高于2000英尺
几率 30% :
短暂存在
从 19日的 06点(UTC)到 19日的 16点(UTC)
多云层高于1500英尺

TAF: TNCC 181600Z 1818/1918 10014KT 9999 SCT020 PROB30 TEMPO 1906/1916 BKN015

超过4000个机场的气象观测和天气预报(METAR&TAF报告)。

可查询的气象台以黄色和红色小点在地图上表示。

将鼠标移到小点上方,可查看气象台名称。

然后点击查看天气观测和预报。

如需切换地图:点击带黑十字的绿色按钮放大地图;点击带横线的绿色按钮缩小地图;或者点击绿色箭头查看邻近地区的地图。


METAR-TAF: